createdAt,value
2023-01-04T00:16:23.268Z,8.4
2023-01-04T00:26:24.058Z,8.5
2023-01-04T00:46:25.043Z,8.7
2023-01-04T00:56:25.928Z,8.7
2023-01-04T01:06:26.414Z,8.7
2023-01-04T01:16:52.770Z,8.6
2023-01-04T01:26:27.132Z,8.5
2023-01-04T01:46:28.728Z,8.2
2023-01-04T01:56:29.447Z,8.2
2023-01-04T02:06:30.207Z,8.2
2023-01-04T02:16:31.186Z,8.1
2023-01-04T02:26:31.318Z,7.9
2023-01-04T02:46:32.623Z,7.9
2023-01-04T03:26:34.902Z,8.1
2023-01-04T03:36:35.083Z,8.3
2023-01-04T03:46:35.468Z,8.3
2023-01-04T04:06:36.329Z,8.4
2023-01-04T04:16:37.128Z,8.5
2023-01-04T04:26:38.133Z,8.6
2023-01-04T04:36:39.138Z,8.7
2023-01-04T04:56:40.051Z,8.8
2023-01-04T05:16:41.470Z,8.9
2023-01-04T05:26:41.664Z,9
2023-01-04T05:36:42.088Z,9.3
2023-01-04T05:56:42.712Z,9.7
2023-01-04T06:06:42.753Z,9.8
2023-01-04T06:26:44.126Z,10.1
2023-01-04T06:36:44.521Z,10.1
2023-01-04T06:46:44.850Z,10.1
2023-01-04T06:56:45.260Z,10.2
2023-01-04T07:06:46.125Z,10.4
2023-01-04T07:16:47.017Z,10.5
2023-01-04T07:26:47.206Z,10.5
2023-01-04T07:36:47.451Z,10.4
2023-01-04T07:46:47.634Z,10.4
2023-01-04T07:56:48.412Z,10.5
2023-01-04T08:06:49.282Z,10.6
2023-01-04T08:16:49.683Z,10.6
2023-01-04T08:26:50.345Z,10.8
2023-01-04T08:56:51.476Z,11.2
2023-01-04T09:06:52.500Z,11
2023-01-04T09:16:53.246Z,10.9
2023-01-04T09:26:54.082Z,11
2023-01-04T09:36:54.660Z,11.1
2023-01-04T09:46:55.579Z,11.2
2023-01-04T10:06:59.513Z,11.1
2023-01-04T10:26:57.549Z,11.2
2023-01-04T10:36:58.208Z,11.2
2023-01-04T10:46:59.283Z,11.1
2023-01-04T10:57:03.673Z,11.2
2023-01-04T11:06:59.924Z,11.3
2023-01-04T11:27:01.178Z,11.3
2023-01-04T11:37:02.155Z,11.3
2023-01-04T11:47:02.329Z,11.3
2023-01-04T12:07:04.184Z,11.4
2023-01-04T12:17:05.130Z,11.4
2023-01-04T12:37:06.526Z,11.6
2023-01-04T12:57:07.702Z,11.7
2023-01-04T13:07:08.706Z,11.8
2023-01-04T13:27:09.553Z,11.7
2023-01-04T14:07:11.428Z,11.9
2023-01-04T14:17:12.403Z,12
2023-01-04T14:27:13.379Z,12.1
2023-01-04T14:47:14.896Z,12
2023-01-04T14:57:15.028Z,12
2023-01-04T15:07:15.648Z,12.1
2023-01-04T15:27:16.923Z,12.3
2023-01-04T15:37:23.489Z,12.2
2023-01-04T15:47:17.944Z,12.3
2023-01-04T15:57:18.641Z,12.2
2023-01-04T16:27:19.987Z,12.3
2023-01-04T16:37:20.131Z,12.4
2023-01-04T16:47:21.088Z,12.4
2023-01-04T16:57:21.597Z,12.5
2023-01-04T17:07:22.152Z,12.5
2023-01-04T17:17:22.713Z,12.5
2023-01-04T17:27:23.665Z,12.5
2023-01-04T17:37:24.529Z,12.5
2023-01-04T17:47:24.557Z,12.5
2023-01-04T17:57:25.455Z,12.5
2023-01-04T18:07:25.667Z,12.5
2023-01-04T18:17:26.016Z,12.5
2023-01-04T18:27:26.911Z,12.4
2023-01-04T18:37:26.952Z,12.3
2023-01-04T18:47:27.735Z,12.3
2023-01-04T18:57:28.025Z,12.4
2023-01-04T19:07:28.973Z,12.4
2023-01-04T19:17:29.700Z,12.4
2023-01-04T19:27:29.831Z,12.2
2023-01-04T19:37:30.687Z,12.1
2023-01-04T19:57:31.367Z,11.9
2023-01-04T20:07:31.987Z,11.8
2023-01-04T20:17:31.885Z,11.6
2023-01-04T20:27:32.152Z,11.5
2023-01-04T20:37:32.583Z,11.6
2023-01-04T20:47:32.670Z,11.5
2023-01-04T21:07:33.928Z,11.7
2023-01-04T21:17:34.469Z,11.8
2023-01-04T21:27:35.279Z,11.7
2023-01-04T21:37:36.081Z,11.6
2023-01-04T21:47:36.796Z,11.5
2023-01-04T21:57:37.323Z,11.6
2023-01-04T22:07:38.270Z,11.6
2023-01-04T22:17:38.701Z,11.7
2023-01-04T22:27:39.460Z,11.7
2023-01-04T22:37:40.101Z,11.7
2023-01-04T22:47:40.367Z,11.7
2023-01-04T23:17:41.582Z,11.4
2023-01-04T23:27:42.191Z,11.4
2023-01-04T23:47:43.701Z,11.5
2023-01-04T23:57:44.452Z,11.5
